sensor_id;sensor_type;location;lat;lon;timestamp;temperature;humidity
26479;DHT22;14163;-26.142;27.992;2023-07-13T00:20:36;9.20;99.90
26479;DHT22;14163;-26.142;27.992;2023-07-13T00:23:08;9.20;99.90
26479;DHT22;14163;-26.142;27.992;2023-07-13T00:25:37;9.80;99.90
26479;DHT22;14163;-26.142;27.992;2023-07-13T00:28:06;10.50;99.90
26479;DHT22;14163;-26.142;27.992;2023-07-13T00:30:35;11.10;99.90
26479;DHT22;14163;-26.142;27.992;2023-07-13T00:33:05;11.70;99.90
26479;DHT22;14163;-26.142;27.992;2023-07-13T00:35:36;12.10;99.90
26479;DHT22;14163;-26.142;27.992;2023-07-13T00:38:06;12.30;99.90
26479;DHT22;14163;-26.142;27.992;2023-07-13T00:40:36;12.60;99.90
26479;DHT22;14163;-26.142;27.992;2023-07-13T00:43:09;12.70;99.90
26479;DHT22;14163;-26.142;27.992;2023-07-13T00:46:13;12.80;99.90
26479;DHT22;14163;-26.142;27.992;2023-07-13T00:48:44;12.90;99.90
26479;DHT22;14163;-26.142;27.992;2023-07-13T00:51:17;12.90;99.90
26479;DHT22;14163;-26.142;27.992;2023-07-13T00:53:48;12.90;99.90
26479;DHT22;14163;-26.142;27.992;2023-07-13T00:56:17;13.00;99.90
26479;DHT22;14163;-26.142;27.992;2023-07-13T00:58:46;13.00;99.90
26479;DHT22;14163;-26.142;27.992;2023-07-13T01:01:16;13.00;99.90
26479;DHT22;14163;-26.142;27.992;2023-07-13T01:03:46;13.00;99.90
26479;DHT22;14163;-26.142;27.992;2023-07-13T01:06:17;12.90;99.90
26479;DHT22;14163;-26.142;27.992;2023-07-13T01:08:46;12.90;99.90
26479;DHT22;14163;-26.142;27.992;2023-07-13T01:11:19;12.90;99.90
26479;DHT22;14163;-26.142;27.992;2023-07-13T01:13:49;12.90;99.90
26479;DHT22;14163;-26.142;27.992;2023-07-13T01:16:24;13.10;99.90
26479;DHT22;14163;-26.142;27.992;2023-07-13T01:18:54;13.00;99.90
26479;DHT22;14163;-26.142;27.992;2023-07-13T01:21:27;13.00;99.90
26479;DHT22;14163;-26.142;27.992;2023-07-13T01:23:57;13.00;99.90
26479;DHT22;14163;-26.142;27.992;2023-07-13T01:26:26;13.00;99.90
26479;DHT22;14163;-26.142;27.992;2023-07-13T01:28:56;13.00;99.90
26479;DHT22;14163;-26.142;27.992;2023-07-13T01:31:25;13.10;99.90
26479;DHT22;14163;-26.142;27.992;2023-07-13T01:33:54;13.00;99.90
26479;DHT22;14163;-26.142;27.992;2023-07-13T01:36:26;13.00;99.90
26479;DHT22;14163;-26.142;27.992;2023-07-13T01:38:55;13.00;99.90
26479;DHT22;14163;-26.142;27.992;2023-07-13T01:41:24;13.00;99.90
26479;DHT22;14163;-26.142;27.992;2023-07-13T01:43:54;12.90;99.90
26479;DHT22;14163;-26.142;27.992;2023-07-13T01:46:23;12.90;99.90
26479;DHT22;14163;-26.142;27.992;2023-07-13T01:48:52;12.90;99.90
26479;DHT22;14163;-26.142;27.992;2023-07-13T01:51:21;12.80;99.90
26479;DHT22;14163;-26.142;27.992;2023-07-13T01:53:52;12.70;99.90
26479;DHT22;14163;-26.142;27.992;2023-07-13T01:56:21;12.70;99.90
26479;DHT22;14163;-26.142;27.992;2023-07-13T01:58:51;12.60;99.90
26479;DHT22;14163;-26.142;27.992;2023-07-13T02:01:20;12.60;99.90
26479;DHT22;14163;-26.142;27.992;2023-07-13T02:03:50;12.60;99.90
26479;DHT22;14163;-26.142;27.992;2023-07-13T02:06:19;12.60;99.90
26479;DHT22;14163;-26.142;27.992;2023-07-13T02:08:48;12.60;99.90
26479;DHT22;14163;-26.142;27.992;2023-07-13T04:11:03;7.60;99.90
26479;DHT22;14163;-26.142;27.992;2023-07-13T04:13:33;7.80;99.90
26479;DHT22;14163;-26.142;27.992;2023-07-13T04:16:03;8.40;99.90
26479;DHT22;14163;-26.142;27.992;2023-07-13T04:18:32;8.90;99.90
26479;DHT22;14163;-26.142;27.992;2023-07-13T04:21:02;9.50;99.90
26479;DHT22;14163;-26.142;27.992;2023-07-13T04:23:31;10.00;99.90
26479;DHT22;14163;-26.142;27.992;2023-07-13T04:26:02;10.40;99.90
26479;DHT22;14163;-26.142;27.992;2023-07-13T04:28:31;10.70;99.90
26479;DHT22;14163;-26.142;27.992;2023-07-13T04:31:01;11.00;99.90
26479;DHT22;14163;-26.142;27.992;2023-07-13T04:33:31;11.40;99.90
26479;DHT22;14163;-26.142;27.992;2023-07-13T04:36:01;11.20;99.90
26479;DHT22;14163;-26.142;27.992;2023-07-13T04:38:31;11.30;99.90
26479;DHT22;14163;-26.142;27.992;2023-07-13T04:41:04;11.30;99.90
26479;DHT22;14163;-26.142;27.992;2023-07-13T04:43:34;11.40;99.90
26479;DHT22;14163;-26.142;27.992;2023-07-13T04:46:07;11.50;99.90
26479;DHT22;14163;-26.142;27.992;2023-07-13T04:48:36;11.60;99.90
26479;DHT22;14163;-26.142;27.992;2023-07-13T04:51:06;11.60;99.90
26479;DHT22;14163;-26.142;27.992;2023-07-13T04:53:36;11.50;99.90
26479;DHT22;14163;-26.142;27.992;2023-07-13T04:56:07;11.50;99.90
26479;DHT22;14163;-26.142;27.992;2023-07-13T04:58:36;11.50;99.90
26479;DHT22;14163;-26.142;27.992;2023-07-13T05:01:07;11.50;99.90
26479;DHT22;14163;-26.142;27.992;2023-07-13T05:03:37;11.50;99.90
26479;DHT22;14163;-26.142;27.992;2023-07-13T05:06:07;11.50;99.90
26479;DHT22;14163;-26.142;27.992;2023-07-13T05:08:38;11.60;99.90
26479;DHT22;14163;-26.142;27.992;2023-07-13T05:11:09;11.60;99.90
26479;DHT22;14163;-26.142;27.992;2023-07-13T05:13:39;11.60;99.90
26479;DHT22;14163;-26.142;27.992;2023-07-13T05:16:09;11.50;99.90
26479;DHT22;14163;-26.142;27.992;2023-07-13T05:18:38;11.50;99.90
26479;DHT22;14163;-26.142;27.992;2023-07-13T05:21:09;11.50;99.90
26479;DHT22;14163;-26.142;27.992;2023-07-13T05:23:39;11.60;99.90
26479;DHT22;14163;-26.142;27.992;2023-07-13T05:26:12;11.60;99.90
26479;DHT22;14163;-26.142;27.992;2023-07-13T05:28:42;11.60;99.90
26479;DHT22;14163;-26.142;27.992;2023-07-13T05:31:12;11.70;99.90
26479;DHT22;14163;-26.142;27.992;2023-07-13T05:33:41;11.70;99.90
26479;DHT22;14163;-26.142;27.992;2023-07-13T05:36:10;11.80;99.90
26479;DHT22;14163;-26.142;27.992;2023-07-13T05:38:40;11.80;99.90
26479;DHT22;14163;-26.142;27.992;2023-07-13T05:41:12;11.90;99.90
26479;DHT22;14163;-26.142;27.992;2023-07-13T05:43:41;11.80;99.90
26479;DHT22;14163;-26.142;27.992;2023-07-13T05:46:11;12.00;99.90
26479;DHT22;14163;-26.142;27.992;2023-07-13T05:48:41;12.00;99.90
26479;DHT22;14163;-26.142;27.992;2023-07-13T05:51:10;12.10;99.90
26479;DHT22;14163;-26.142;27.992;2023-07-13T05:53:40;12.00;99.90
26479;DHT22;14163;-26.142;27.992;2023-07-13T05:56:12;12.10;99.90
26479;DHT22;14163;-26.142;27.992;2023-07-13T05:58:41;12.10;99.90
26479;DHT22;14163;-26.142;27.992;2023-07-13T06:01:12;12.30;99.90
26479;DHT22;14163;-26.142;27.992;2023-07-13T06:03:43;12.40;99.90
26479;DHT22;14163;-26.142;27.992;2023-07-13T06:06:13;12.50;99.90
26479;DHT22;14163;-26.142;27.992;2023-07-13T06:08:42;12.50;99.90
26479;DHT22;14163;-26.142;27.992;2023-07-13T06:11:17;12.60;99.90
26479;DHT22;14163;-26.142;27.992;2023-07-13T06:13:46;12.70;99.90
26479;DHT22;14163;-26.142;27.992;2023-07-13T06:16:16;12.90;99.90
26479;DHT22;14163;-26.142;27.992;2023-07-13T06:18:46;12.90;99.90
26479;DHT22;14163;-26.142;27.992;2023-07-13T06:21:17;12.90;99.90
26479;DHT22;14163;-26.142;27.992;2023-07-13T06:23:48;12.80;99.90
26479;DHT22;14163;-26.142;27.992;2023-07-13T06:26:20;12.80;99.90
26479;DHT22;14163;-26.142;27.992;2023-07-13T06:28:49;12.90;99.90
26479;DHT22;14163;-26.142;27.992;2023-07-13T06:31:19;12.90;99.90
26479;DHT22;14163;-26.142;27.992;2023-07-13T06:33:48;12.90;99.90
26479;DHT22;14163;-26.142;27.992;2023-07-13T06:36:17;12.90;99.90
26479;DHT22;14163;-26.142;27.992;2023-07-13T06:38:47;12.80;99.90
26479;DHT22;14163;-26.142;27.992;2023-07-13T06:41:16;12.70;99.90
26479;DHT22;14163;-26.142;27.992;2023-07-13T06:43:47;12.60;99.90
26479;DHT22;14163;-26.142;27.992;2023-07-13T06:46:16;12.70;99.90
26479;DHT22;14163;-26.142;27.992;2023-07-13T06:48:45;12.70;99.90
26479;DHT22;14163;-26.142;27.992;2023-07-13T06:51:15;12.70;99.90
26479;DHT22;14163;-26.142;27.992;2023-07-13T06:53:45;12.60;99.90
26479;DHT22;14163;-26.142;27.992;2023-07-13T06:56:14;12.50;99.90
26479;DHT22;14163;-26.142;27.992;2023-07-13T06:58:43;12.50;99.90
26479;DHT22;14163;-26.142;27.992;2023-07-13T07:01:14;12.50;99.90
26479;DHT22;14163;-26.142;27.992;2023-07-13T07:03:43;12.40;99.90
26479;DHT22;14163;-26.142;27.992;2023-07-13T07:06:16;12.50;99.90
26479;DHT22;14163;-26.142;27.992;2023-07-13T07:08:45;12.60;99.90
26479;DHT22;14163;-26.142;27.992;2023-07-13T07:11:18;12.90;99.90
26479;DHT22;14163;-26.142;27.992;2023-07-13T07:13:47;13.10;99.90
26479;DHT22;14163;-26.142;27.992;2023-07-13T07:16:19;13.20;99.90
26479;DHT22;14163;-26.142;27.992;2023-07-13T07:18:50;13.30;99.90
26479;DHT22;14163;-26.142;27.992;2023-07-13T07:21:19;13.50;99.90
26479;DHT22;14163;-26.142;27.992;2023-07-13T07:23:50;13.40;99.90
26479;DHT22;14163;-26.142;27.992;2023-07-13T07:26:20;13.50;99.90
26479;DHT22;14163;-26.142;27.992;2023-07-13T07:28:49;13.50;99.90
26479;DHT22;14163;-26.142;27.992;2023-07-13T07:31:20;13.60;99.90
26479;DHT22;14163;-26.142;27.992;2023-07-13T07:33:50;13.60;99.90
26479;DHT22;14163;-26.142;27.992;2023-07-13T07:36:19;13.60;99.90
26479;DHT22;14163;-26.142;27.992;2023-07-13T07:38:48;13.70;99.90
26479;DHT22;14163;-26.142;27.992;2023-07-13T07:41:17;13.80;99.90
26479;DHT22;14163;-26.142;27.992;2023-07-13T07:43:47;14.00;99.90
26479;DHT22;14163;-26.142;27.992;2023-07-13T07:46:16;14.10;99.90
26479;DHT22;14163;-26.142;27.992;2023-07-13T07:48:47;14.30;99.90
26479;DHT22;14163;-26.142;27.992;2023-07-13T07:51:16;14.30;99.90
26479;DHT22;14163;-26.142;27.992;2023-07-13T07:53:46;14.40;99.90
26479;DHT22;14163;-26.142;27.992;2023-07-13T07:56:15;14.50;99.90
26479;DHT22;14163;-26.142;27.992;2023-07-13T07:58:45;14.60;99.90
26479;DHT22;14163;-26.142;27.992;2023-07-13T08:01:14;14.70;99.90
26479;DHT22;14163;-26.142;27.992;2023-07-13T08:03:44;14.70;99.90
26479;DHT22;14163;-26.142;27.992;2023-07-13T08:06:14;14.80;99.90
26479;DHT22;14163;-26.142;27.992;2023-07-13T08:08:46;14.90;99.90
26479;DHT22;14163;-26.142;27.992;2023-07-13T08:11:16;15.00;99.90
26479;DHT22;14163;-26.142;27.992;2023-07-13T08:13:46;15.10;99.90
26479;DHT22;14163;-26.142;27.992;2023-07-13T08:16:16;15.30;99.90
26479;DHT22;14163;-26.142;27.992;2023-07-13T08:18:45;15.30;99.90
26479;DHT22;14163;-26.142;27.992;2023-07-13T08:21:16;15.40;99.90
26479;DHT22;14163;-26.142;27.992;2023-07-13T08:23:46;15.50;99.90
26479;DHT22;14163;-26.142;27.992;2023-07-13T08:26:16;15.50;99.90
26479;DHT22;14163;-26.142;27.992;2023-07-13T08:28:46;15.60;99.90
26479;DHT22;14163;-26.142;27.992;2023-07-13T08:31:15;15.60;99.90
26479;DHT22;14163;-26.142;27.992;2023-07-13T08:33:44;15.60;99.90
26479;DHT22;14163;-26.142;27.992;2023-07-13T08:36:16;15.60;99.90
26479;DHT22;14163;-26.142;27.992;2023-07-13T08:38:45;15.70;99.90
26479;DHT22;14163;-26.142;27.992;2023-07-13T08:41:22;15.90;99.90
26479;DHT22;14163;-26.142;27.992;2023-07-13T08:43:56;16.10;99.90
26479;DHT22;14163;-26.142;27.992;2023-07-13T08:46:28;16.20;99.90
26479;DHT22;14163;-26.142;27.992;2023-07-13T08:49:03;16.40;99.90
26479;DHT22;14163;-26.142;27.992;2023-07-13T08:51:40;16.70;99.90
26479;DHT22;14163;-26.142;27.992;2023-07-13T08:54:21;16.80;99.90
26479;DHT22;14163;-26.142;27.992;2023-07-13T08:56:51;16.90;99.90
26479;DHT22;14163;-26.142;27.992;2023-07-13T08:59:26;16.80;99.90
26479;DHT22;14163;-26.142;27.992;2023-07-13T09:02:08;16.80;99.90
26479;DHT22;14163;-26.142;27.992;2023-07-13T09:04:46;17.10;99.90
26479;DHT22;14163;-26.142;27.992;2023-07-13T09:07:27;17.40;99.90
26479;DHT22;14163;-26.142;27.992;2023-07-13T09:10:13;17.80;99.90
26479;DHT22;14163;-26.142;27.992;2023-07-13T09:12:55;18.20;99.90
26479;DHT22;14163;-26.142;27.992;2023-07-13T09:15:31;18.70;99.90
26479;DHT22;14163;-26.142;27.992;2023-07-13T09:18:08;19.30;99.90
26479;DHT22;14163;-26.142;27.992;2023-07-13T09:20:42;19.90;99.90
26479;DHT22;14163;-26.142;27.992;2023-07-13T09:23:17;20.40;99.60
26479;DHT22;14163;-26.142;27.992;2023-07-13T09:25:50;20.80;94.80
26479;DHT22;14163;-26.142;27.992;2023-07-13T09:28:25;21.30;91.40
26479;DHT22;14163;-26.142;27.992;2023-07-13T09:31:03;21.90;89.00
26479;DHT22;14163;-26.142;27.992;2023-07-13T09:33:34;22.60;79.20
26479;DHT22;14163;-26.142;27.992;2023-07-13T09:36:21;23.00;76.20
26479;DHT22;14163;-26.142;27.992;2023-07-13T09:38:59;23.40;74.00
26479;DHT22;14163;-26.142;27.992;2023-07-13T09:41:38;23.90;71.70
26479;DHT22;14163;-26.142;27.992;2023-07-13T09:44:11;24.50;69.30
26479;DHT22;14163;-26.142;27.992;2023-07-13T09:46:45;24.80;67.60
26479;DHT22;14163;-26.142;27.992;2023-07-13T09:49:15;25.30;65.90
26479;DHT22;14163;-26.142;27.992;2023-07-13T09:51:45;25.60;64.00
26479;DHT22;14163;-26.142;27.992;2023-07-13T09:54:25;25.90;62.20
26479;DHT22;14163;-26.142;27.992;2023-07-13T09:56:58;26.20;59.90
26479;DHT22;14163;-26.142;27.992;2023-07-13T09:59:31;26.30;59.60
26479;DHT22;14163;-26.142;27.992;2023-07-13T12:05:19;20.80;60.20
26479;DHT22;14163;-26.142;27.992;2023-07-13T12:07:50;20.70;60.20
26479;DHT22;14163;-26.142;27.992;2023-07-13T12:10:22;21.10;59.90
26479;DHT22;14163;-26.142;27.992;2023-07-13T12:12:54;21.70;58.60
26479;DHT22;14163;-26.142;27.992;2023-07-13T12:15:27;21.90;59.10
26479;DHT22;14163;-26.142;27.992;2023-07-13T12:17:57;22.00;57.90
26479;DHT22;14163;-26.142;27.992;2023-07-13T12:20:33;22.00;56.80
26479;DHT22;14163;-26.142;27.992;2023-07-13T12:23:07;22.10;57.00
26479;DHT22;14163;-26.142;27.992;2023-07-13T12:25:43;22.10;57.60
26479;DHT22;14163;-26.142;27.992;2023-07-13T12:28:23;22.20;57.90
26479;DHT22;14163;-26.142;27.992;2023-07-13T12:30:59;22.40;57.50
26479;DHT22;14163;-26.142;27.992;2023-07-13T12:33:30;22.60;58.40
26479;DHT22;14163;-26.142;27.992;2023-07-13T12:36:03;22.80;58.10
26479;DHT22;14163;-26.142;27.992;2023-07-13T12:38:34;23.00;57.80
26479;DHT22;14163;-26.142;27.992;2023-07-13T12:41:04;23.10;56.60
26479;DHT22;14163;-26.142;27.992;2023-07-13T12:43:36;23.10;56.80
26479;DHT22;14163;-26.142;27.992;2023-07-13T12:46:16;23.00;57.10
26479;DHT22;14163;-26.142;27.992;2023-07-13T12:48:50;23.00;57.70
26479;DHT22;14163;-26.142;27.992;2023-07-13T12:51:25;23.00;57.00
26479;DHT22;14163;-26.142;27.992;2023-07-13T12:54:04;23.00;56.60
26479;DHT22;14163;-26.142;27.992;2023-07-13T12:56:34;22.90;56.90
26479;DHT22;14163;-26.142;27.992;2023-07-13T12:59:04;22.80;57.30
26479;DHT22;14163;-26.142;27.992;2023-07-13T13:01:36;22.80;58.40
26479;DHT22;14163;-26.142;27.992;2023-07-13T13:04:05;22.90;57.20
26479;DHT22;14163;-26.142;27.992;2023-07-13T13:06:37;23.00;57.70
26479;DHT22;14163;-26.142;27.992;2023-07-13T13:09:12;22.90;57.00
26479;DHT22;14163;-26.142;27.992;2023-07-13T13:11:42;22.80;56.90
26479;DHT22;14163;-26.142;27.992;2023-07-13T13:14:12;22.70;57.00
26479;DHT22;14163;-26.142;27.992;2023-07-13T13:16:47;22.50;56.70
26479;DHT22;14163;-26.142;27.992;2023-07-13T13:19:20;22.40;58.00
26479;DHT22;14163;-26.142;27.992;2023-07-13T13:21:52;22.50;58.50
26479;DHT22;14163;-26.142;27.992;2023-07-13T13:24:27;22.60;58.20
26479;DHT22;14163;-26.142;27.992;2023-07-13T13:26:56;22.70;57.70
26479;DHT22;14163;-26.142;27.992;2023-07-13T13:29:27;22.90;57.50
26479;DHT22;14163;-26.142;27.992;2023-07-13T13:31:57;22.90;55.50
26479;DHT22;14163;-26.142;27.992;2023-07-13T13:34:26;22.80;55.10
26479;DHT22;14163;-26.142;27.992;2023-07-13T13:36:57;22.60;55.00
26479;DHT22;14163;-26.142;27.992;2023-07-13T13:39:35;22.40;56.70
26479;DHT22;14163;-26.142;27.992;2023-07-13T13:42:08;22.50;56.00
26479;DHT22;14163;-26.142;27.992;2023-07-13T13:44:37;22.60;55.20
26479;DHT22;14163;-26.142;27.992;2023-07-13T13:47:21;22.70;55.60
26479;DHT22;14163;-26.142;27.992;2023-07-13T13:49:53;22.80;55.20
26479;DHT22;14163;-26.142;27.992;2023-07-13T13:52:24;22.80;54.60
26479;DHT22;14163;-26.142;27.992;2023-07-13T13:54:54;22.80;54.90
26479;DHT22;14163;-26.142;27.992;2023-07-13T13:57:24;22.80;54.30
26479;DHT22;14163;-26.142;27.992;2023-07-13T13:59:53;22.90;53.80
26479;DHT22;14163;-26.142;27.992;2023-07-13T14:02:24;23.00;53.40
26479;DHT22;14163;-26.142;27.992;2023-07-13T14:04:57;22.80;53.20
26479;DHT22;14163;-26.142;27.992;2023-07-13T14:07:29;22.70;53.70
26479;DHT22;14163;-26.142;27.992;2023-07-13T14:09:59;22.70;53.40
26479;DHT22;14163;-26.142;27.992;2023-07-13T14:12:29;22.60;52.50
26479;DHT22;14163;-26.142;27.992;2023-07-13T14:14:59;22.40;53.60
26479;DHT22;14163;-26.142;27.992;2023-07-13T14:17:29;22.30;55.00
26479;DHT22;14163;-26.142;27.992;2023-07-13T14:19:58;22.30;56.00
26479;DHT22;14163;-26.142;27.992;2023-07-13T14:22:29;22.50;58.20
26479;DHT22;14163;-26.142;27.992;2023-07-13T14:24:58;22.50;51.90
26479;DHT22;14163;-26.142;27.992;2023-07-13T14:27:27;22.50;51.60
26479;DHT22;14163;-26.142;27.992;2023-07-13T14:29:57;22.40;51.80
26479;DHT22;14163;-26.142;27.992;2023-07-13T14:32:26;22.50;52.70
26479;DHT22;14163;-26.142;27.992;2023-07-13T14:34:56;22.50;51.80
26479;DHT22;14163;-26.142;27.992;2023-07-13T14:37:25;22.50;51.00
26479;DHT22;14163;-26.142;27.992;2023-07-13T14:39:56;22.50;50.50
26479;DHT22;14163;-26.142;27.992;2023-07-13T14:42:25;22.40;51.10
26479;DHT22;14163;-26.142;27.992;2023-07-13T14:44:54;22.40;51.00
26479;DHT22;14163;-26.142;27.992;2023-07-13T14:47:24;22.30;51.20
26479;DHT22;14163;-26.142;27.992;2023-07-13T14:49:53;22.30;51.50
26479;DHT22;14163;-26.142;27.992;2023-07-13T14:52:23;22.20;51.90
26479;DHT22;14163;-26.142;27.992;2023-07-13T14:54:55;22.10;52.30
26479;DHT22;14163;-26.142;27.992;2023-07-13T14:57:24;22.20;51.10
26479;DHT22;14163;-26.142;27.992;2023-07-13T14:59:53;22.20;50.80
26479;DHT22;14163;-26.142;27.992;2023-07-13T15:02:26;22.20;50.80
26479;DHT22;14163;-26.142;27.992;2023-07-13T15:04:56;22.10;50.80
26479;DHT22;14163;-26.142;27.992;2023-07-13T15:07:26;22.00;50.80
26479;DHT22;14163;-26.142;27.992;2023-07-13T15:09:57;21.90;51.20
26479;DHT22;14163;-26.142;27.992;2023-07-13T15:12:26;21.80;51.90
26479;DHT22;14163;-26.142;27.992;2023-07-13T15:14:55;21.80;51.70
26479;DHT22;14163;-26.142;27.992;2023-07-13T15:17:37;21.70;52.00
26479;DHT22;14163;-26.142;27.992;2023-07-13T15:20:16;21.80;52.00
26479;DHT22;14163;-26.142;27.992;2023-07-13T15:22:47;21.70;52.50
26479;DHT22;14163;-26.142;27.992;2023-07-13T15:25:19;21.50;52.80
26479;DHT22;14163;-26.142;27.992;2023-07-13T15:27:49;21.50;53.10
26479;DHT22;14163;-26.142;27.992;2023-07-13T15:30:18;21.50;53.10
26479;DHT22;14163;-26.142;27.992;2023-07-13T15:32:48;21.50;53.10
26479;DHT22;14163;-26.142;27.992;2023-07-13T15:35:20;21.50;52.90
26479;DHT22;14163;-26.142;27.992;2023-07-13T15:37:51;21.40;53.10
26479;DHT22;14163;-26.142;27.992;2023-07-13T15:40:24;21.20;53.60
26479;DHT22;14163;-26.142;27.992;2023-07-13T15:42:54;21.00;53.90
26479;DHT22;14163;-26.142;27.992;2023-07-13T15:45:25;20.90;54.60
26479;DHT22;14163;-26.142;27.992;2023-07-13T15:47:55;20.90;55.10
26479;DHT22;14163;-26.142;27.992;2023-07-13T15:50:25;21.00;54.60
26479;DHT22;14163;-26.142;27.992;2023-07-13T15:52:59;21.10;54.50
26479;DHT22;14163;-26.142;27.992;2023-07-13T15:55:32;21.00;55.40
26479;DHT22;14163;-26.142;27.992;2023-07-13T15:58:02;21.00;56.30
26479;DHT22;14163;-26.142;27.992;2023-07-13T16:00:32;20.80;56.80
26479;DHT22;14163;-26.142;27.992;2023-07-13T16:03:01;20.70;57.10
26479;DHT22;14163;-26.142;27.992;2023-07-13T16:05:31;20.60;57.50
26479;DHT22;14163;-26.142;27.992;2023-07-13T16:08:01;20.50;57.80
26479;DHT22;14163;-26.142;27.992;2023-07-13T16:10:35;20.40;57.70
26479;DHT22;14163;-26.142;27.992;2023-07-13T16:13:12;20.40;58.20
26479;DHT22;14163;-26.142;27.992;2023-07-13T16:15:42;20.40;58.30
26479;DHT22;14163;-26.142;27.992;2023-07-13T16:18:12;20.30;58.20
26479;DHT22;14163;-26.142;27.992;2023-07-13T16:20:42;20.30;58.50
26479;DHT22;14163;-26.142;27.992;2023-07-13T16:23:13;20.20;59.00
26479;DHT22;14163;-26.142;27.992;2023-07-13T16:25:44;20.00;59.40
26479;DHT22;14163;-26.142;27.992;2023-07-13T16:28:15;19.90;59.50
26479;DHT22;14163;-26.142;27.992;2023-07-13T16:30:44;19.80;59.80
26479;DHT22;14163;-26.142;27.992;2023-07-13T16:33:14;19.70;59.90
26479;DHT22;14163;-26.142;27.992;2023-07-13T16:35:44;19.70;59.90
26479;DHT22;14163;-26.142;27.992;2023-07-13T16:38:16;19.70;59.60
26479;DHT22;14163;-26.142;27.992;2023-07-13T16:40:48;19.70;60.00
26479;DHT22;14163;-26.142;27.992;2023-07-13T16:43:19;19.50;60.20
26479;DHT22;14163;-26.142;27.992;2023-07-13T16:45:49;19.40;60.80
26479;DHT22;14163;-26.142;27.992;2023-07-13T16:48:22;19.30;60.10
26479;DHT22;14163;-26.142;27.992;2023-07-13T16:50:54;19.30;59.90
26479;DHT22;14163;-26.142;27.992;2023-07-13T16:53:27;19.30;59.80
26479;DHT22;14163;-26.142;27.992;2023-07-13T16:55:58;19.20;60.00
26479;DHT22;14163;-26.142;27.992;2023-07-13T16:58:29;19.30;60.40
26479;DHT22;14163;-26.142;27.992;2023-07-13T17:00:59;19.30;60.80
26479;DHT22;14163;-26.142;27.992;2023-07-13T17:03:30;19.30;60.90
26479;DHT22;14163;-26.142;27.992;2023-07-13T17:06:00;19.30;61.20
26479;DHT22;14163;-26.142;27.992;2023-07-13T17:08:32;19.20;61.00
26479;DHT22;14163;-26.142;27.992;2023-07-13T17:11:11;19.20;61.10
26479;DHT22;14163;-26.142;27.992;2023-07-13T17:13:40;19.10;61.10
26479;DHT22;14163;-26.142;27.992;2023-07-13T17:16:10;19.10;60.90
26479;DHT22;14163;-26.142;27.992;2023-07-13T17:18:40;19.10;60.90
26479;DHT22;14163;-26.142;27.992;2023-07-13T17:21:14;19.00;61.10
26479;DHT22;14163;-26.142;27.992;2023-07-13T17:23:44;19.00;61.00
26479;DHT22;14163;-26.142;27.992;2023-07-13T17:26:15;19.00;61.60
26479;DHT22;14163;-26.142;27.992;2023-07-13T17:28:45;18.90;61.80
26479;DHT22;14163;-26.142;27.992;2023-07-13T17:31:19;18.90;61.80
26479;DHT22;14163;-26.142;27.992;2023-07-13T17:33:49;18.90;62.00
26479;DHT22;14163;-26.142;27.992;2023-07-13T17:36:19;18.80;62.00
26479;DHT22;14163;-26.142;27.992;2023-07-13T17:38:49;18.70;62.20
26479;DHT22;14163;-26.142;27.992;2023-07-13T17:41:26;18.60;62.20
26479;DHT22;14163;-26.142;27.992;2023-07-13T17:43:56;18.60;62.50
26479;DHT22;14163;-26.142;27.992;2023-07-13T17:46:30;18.50;62.60
26479;DHT22;14163;-26.142;27.992;2023-07-13T17:49:00;18.40;62.70
26479;DHT22;14163;-26.142;27.992;2023-07-13T17:51:29;18.50;62.60
26479;DHT22;14163;-26.142;27.992;2023-07-13T17:53:59;18.40;62.40
26479;DHT22;14163;-26.142;27.992;2023-07-13T17:56:29;18.40;62.70
26479;DHT22;14163;-26.142;27.992;2023-07-13T17:59:01;18.30;62.30
26479;DHT22;14163;-26.142;27.992;2023-07-13T22:08:21;11.10;99.90
26479;DHT22;14163;-26.142;27.992;2023-07-13T22:10:51;11.20;99.90
26479;DHT22;14163;-26.142;27.992;2023-07-13T22:13:26;11.80;99.90
26479;DHT22;14163;-26.142;27.992;2023-07-13T22:15:56;12.50;99.90
26479;DHT22;14163;-26.142;27.992;2023-07-13T22:18:27;13.20;99.90
26479;DHT22;14163;-26.142;27.992;2023-07-13T22:20:56;13.80;99.90
26479;DHT22;14163;-26.142;27.992;2023-07-13T22:23:28;14.10;99.90
26479;DHT22;14163;-26.142;27.992;2023-07-13T22:25:58;14.40;99.90
26479;DHT22;14163;-26.142;27.992;2023-07-13T22:28:28;14.60;99.90
26479;DHT22;14163;-26.142;27.992;2023-07-13T22:30:58;14.80;99.90
26479;DHT22;14163;-26.142;27.992;2023-07-13T22:33:29;14.80;99.90
26479;DHT22;14163;-26.142;27.992;2023-07-13T22:35:59;14.80;99.90
26479;DHT22;14163;-26.142;27.992;2023-07-13T22:38:32;14.90;99.90
26479;DHT22;14163;-26.142;27.992;2023-07-13T22:41:02;15.00;99.90
26479;DHT22;14163;-26.142;27.992;2023-07-13T22:43:32;15.00;99.90
26479;DHT22;14163;-26.142;27.992;2023-07-13T22:46:04;15.00;99.90
26479;DHT22;14163;-26.142;27.992;2023-07-13T22:48:40;14.90;99.90
26479;DHT22;14163;-26.142;27.992;2023-07-13T22:51:14;14.80;99.90
26479;DHT22;14163;-26.142;27.992;2023-07-13T22:53:46;14.80;99.90
26479;DHT22;14163;-26.142;27.992;2023-07-13T22:56:18;14.70;99.90
26479;DHT22;14163;-26.142;27.992;2023-07-13T22:58:47;14.70;99.90
26479;DHT22;14163;-26.142;27.992;2023-07-13T23:01:19;14.60;99.90
26479;DHT22;14163;-26.142;27.992;2023-07-13T23:03:50;14.50;99.90
26479;DHT22;14163;-26.142;27.992;2023-07-13T23:06:22;14.40;99.90
26479;DHT22;14163;-26.142;27.992;2023-07-13T23:08:56;14.40;99.90
26479;DHT22;14163;-26.142;27.992;2023-07-13T23:11:27;14.50;99.90
26479;DHT22;14163;-26.142;27.992;2023-07-13T23:13:56;14.50;99.90
26479;DHT22;14163;-26.142;27.992;2023-07-13T23:16:28;14.40;99.90
26479;DHT22;14163;-26.142;27.992;2023-07-13T23:18:59;14.50;99.90
26479;DHT22;14163;-26.142;27.992;2023-07-13T23:21:29;14.40;99.90
26479;DHT22;14163;-26.142;27.992;2023-07-13T23:24:02;14.30;99.90
26479;DHT22;14163;-26.142;27.992;2023-07-13T23:26:31;14.20;99.90
26479;DHT22;14163;-26.142;27.992;2023-07-13T23:29:00;14.10;99.90
26479;DHT22;14163;-26.142;27.992;2023-07-13T23:31:31;14.20;99.90
26479;DHT22;14163;-26.142;27.992;2023-07-13T23:34:02;14.10;99.90
26479;DHT22;14163;-26.142;27.992;2023-07-13T23:36:33;14.10;99.90
26479;DHT22;14163;-26.142;27.992;2023-07-13T23:39:05;14.00;99.90
26479;DHT22;14163;-26.142;27.992;2023-07-13T23:41:34;14.00;99.90
26479;DHT22;14163;-26.142;27.992;2023-07-13T23:44:03;13.90;99.90
26479;DHT22;14163;-26.142;27.992;2023-07-13T23:46:38;13.80;99.90
26479;DHT22;14163;-26.142;27.992;2023-07-13T23:49:16;13.80;99.90
26479;DHT22;14163;-26.142;27.992;2023-07-13T23:51:50;13.80;99.90
26479;DHT22;14163;-26.142;27.992;2023-07-13T23:54:21;13.80;99.90
26479;DHT22;14163;-26.142;27.992;2023-07-13T23:56:51;13.70;99.90